Peotone Weather

Nearby METAR Reports

 

KIGQ - Lansing, Illinois, USA
Distance from station: NE 19mi, 30km
Updated: Sat, 21-Apr-2018 6:15am CDT
Clear
Clear
 Wind from calm
Wind: Calm
Temperature: 36°F , 2°C
Dew Point: 32°F , 0°C
Humidity: 87%
Barometer: 30.44 inHg , 1030.8 hPa
Clouds: Clear
Visibility: 10 miles , 16 km
2018/04/21 11:15 KIGQ 211115Z AUTO 00000KT 10SM CLR 02/00 A3044 RMK AO2 T00241001
KIKK - Kankakee, Illinois, USA
Distance from station: S 19mi, 30km
Updated: Sat, 21-Apr-2018 6:15am CDT
Clear
Clear
 Wind from E
Wind: E 5 mph , 7 km/h
Temperature: 39°F , 4°C
Wind Chill: 35°F , 2°C
Dew Point: 23°F , -5°C
Humidity: 52%
Barometer: 30.44 inHg , 1030.8 hPa
Clouds: Clear
Visibility: 10 miles , 16 km
2018/04/21 11:15 KIKK 211115Z AUTO 08004KT 10SM CLR 04/M05 A3044 RMK AO2 T00431049
 
KSJC - Joliet, Illinois, USA
Distance from station: WNW 24mi, 38km
Updated: Sat, 21-Apr-2018 5:53am CDT
Clear
Clear
 Wind from calm
Wind: Calm
Temperature: 52°F , 11°C
Dew Point: 46°F , 8°C
Humidity: 82%
Barometer: 30.14 inHg , 1020.7 hPa
Clouds: Clear
Visibility: 10 miles , 16 km
2018/04/21 10:53 KSJC 211053Z AUTO 00000KT 10SM CLR 11/08 A3014 RMK AO2 SLP205 T01110078
KLOT - Romeoville, Illinois, USA
Distance from station: NW 26mi, 41km
Updated: Sat, 21-Apr-2018 6:15am CDT
Partly cloudy
Partly cloudy
 Wind from ESE
Wind: ESE 5 mph , 7 km/h
Temperature: 43°F , 6°C
Wind Chill: 40°F , 4°C
Dew Point: 21°F , -6°C
Humidity: 42%
Barometer: 30.42 inHg , 1030.1 hPa
Clouds: Partly cloudy
Visibility: 10 miles , 16 km
Cloud details: Partly cloudy 12000 ft
2018/04/21 11:15 KLOT 211115Z AUTO 11004KT 10SM SCT120 06/M06 A3042 RMK AO2 T00601059
 
KMDW - Midway Airport Chicago, Illinois, USA
Distance from station: N 31mi, 50km
Updated: Sat, 21-Apr-2018 5:53am CDT
Overcast
Overcast
 Wind from calm
Wind: Calm
Temperature: 45°F , 7°C
Dew Point: 19°F , -7°C
Humidity: 37%
Barometer: 30.44 inHg , 1030.8 hPa
Clouds: Overcast
Visibility: 10 miles , 16 km
Cloud details: Mostly cloudy 15000 ft
Overcast 25000 ft
2018/04/21 10:53 KMDW 211053Z 00000KT 10SM BKN150 OVC250 07/M07 A3044 RMK AO2 SLP312 T00671067
KC09 - Morris, Illinois, USA
Distance from station: W 34mi, 54km
Updated: Sat, 21-Apr-2018 6:15am CDT
Overcast
Overcast
 Wind from ENE
Wind: ENE 5 mph , 7 km/h
Temperature: 41°F , 5°C
Wind Chill: 38°F , 3°C
Dew Point: 27°F , -3°C
Humidity: 57%
Barometer: 30.41 inHg , 1029.8 hPa
Clouds: Overcast
Visibility: 10 miles , 16 km
Cloud details: Overcast 12000 ft
2018/04/21 11:15 KC09 211115Z AUTO 06004KT 10SM OVC120 05/M03 A3041 RMK AO2 T00461035

Metar display script from Saratoga-Weather.org